sensor_id;sensor_type;location;lat;lon;timestamp;pressure;altitude;pressure_sealevel;temperature;humidity
6833;BME280;3454;42.654;23.378;2023-04-07T00:01:22;63292.03;;;3.55;55.94
6833;BME280;3454;42.654;23.378;2023-04-07T00:03:47;63290.69;;;3.52;55.93
6833;BME280;3454;42.654;23.378;2023-04-07T00:06:13;63277.34;;;3.41;55.02
6833;BME280;3454;42.654;23.378;2023-04-07T00:08:38;63299.38;;;3.60;54.31
6833;BME280;3454;42.654;23.378;2023-04-07T00:11:04;63279.19;;;3.46;54.83
6833;BME280;3454;42.654;23.378;2023-04-07T00:13:30;63283.66;;;3.45;54.61
6833;BME280;3454;42.654;23.378;2023-04-07T00:15:55;63292.34;;;3.53;54.04
6833;BME280;3454;42.654;23.378;2023-04-07T00:18:20;63285.81;;;3.47;54.09
6833;BME280;3454;42.654;23.378;2023-04-07T00:20:46;63283.66;;;3.45;54.23
6833;BME280;3454;42.654;23.378;2023-04-07T00:23:11;63288.00;;;3.49;54.04
6833;BME280;3454;42.654;23.378;2023-04-07T00:25:36;63285.59;;;3.45;54.07
6833;BME280;3454;42.654;23.378;2023-04-07T00:28:02;63272.22;;;3.34;52.86
6833;BME280;3454;42.654;23.378;2023-04-07T00:30:27;63277.13;;;3.39;53.72
6833;BME280;3454;42.654;23.378;2023-04-07T00:32:53;63271.91;;;3.36;53.06
6833;BME280;3454;42.654;23.378;2023-04-07T00:35:18;63268.44;;;3.31;54.05
6833;BME280;3454;42.654;23.378;2023-04-07T00:37:44;63274.41;;;3.36;53.58
6833;BME280;3454;42.654;23.378;2023-04-07T00:40:10;63279.28;;;3.41;53.60
6833;BME280;3454;42.654;23.378;2023-04-07T00:42:36;63282.53;;;3.44;53.44
6833;BME280;3454;42.654;23.378;2023-04-07T00:45:01;63283.66;;;3.45;52.78
6833;BME280;3454;42.654;23.378;2023-04-07T00:47:26;63288.50;;;3.50;52.90
6833;BME280;3454;42.654;23.378;2023-04-07T00:49:52;63299.63;;;3.62;53.39
6833;BME280;3454;42.654;23.378;2023-04-07T00:52:18;63323.28;;;3.82;54.29
6833;BME280;3454;42.654;23.378;2023-04-07T00:54:44;63308.31;;;3.70;61.34
6833;BME280;3454;42.654;23.378;2023-04-07T00:57:11;63323.28;;;3.82;63.96
6833;BME280;3454;42.654;23.378;2023-04-07T00:59:36;63286.03;;;3.50;66.06
6833;BME280;3454;42.654;23.378;2023-04-07T01:04:47;63239.56;;;3.09;69.14
6833;BME280;3454;42.654;23.378;2023-04-07T01:07:23;63256.25;;;3.17;69.07
6833;BME280;3454;42.654;23.378;2023-04-07T01:09:57;63244.00;;;3.08;69.91
6833;BME280;3454;42.654;23.378;2023-04-07T01:15:08;63261.91;;;3.25;69.76
6833;BME280;3454;42.654;23.378;2023-04-07T01:17:36;63259.44;;;3.25;69.08
6833;BME280;3454;42.654;23.378;2023-04-07T01:20:06;63265.41;;;3.30;69.79
6833;BME280;3454;42.654;23.378;2023-04-07T01:22:41;63253.44;;;3.19;70.71
6833;BME280;3454;42.654;23.378;2023-04-07T01:26:02;63267.56;;;3.32;68.28
6833;BME280;3454;42.654;23.378;2023-04-07T01:31:03;63263.22;;;3.28;69.34
6833;BME280;3454;42.654;23.378;2023-04-07T01:33:31;63253.22;;;3.17;71.85
6833;BME280;3454;42.654;23.378;2023-04-07T01:35:59;63245.63;;;3.10;69.69
6833;BME280;3454;42.654;23.378;2023-04-07T01:38:27;63252.69;;;3.16;70.54
6833;BME280;3454;42.654;23.378;2023-04-07T01:40:54;63260.28;;;3.23;70.03
6833;BME280;3454;42.654;23.378;2023-04-07T01:43:21;63288.75;;;3.52;69.33
6833;BME280;3454;42.654;23.378;2023-04-07T01:45:48;63274.41;;;3.36;71.10
6833;BME280;3454;42.654;23.378;2023-04-07T01:48:15;63277.13;;;3.39;71.18
6833;BME280;3454;42.654;23.378;2023-04-07T01:50:41;63277.66;;;3.39;71.68
6833;BME280;3454;42.654;23.378;2023-04-07T01:53:07;63272.78;;;3.35;72.47
6833;BME280;3454;42.654;23.378;2023-04-07T01:55:33;63276.88;;;3.36;73.00
6833;BME280;3454;42.654;23.378;2023-04-07T01:58:04;63251.06;;;3.15;73.98
6833;BME280;3454;42.654;23.378;2023-04-07T02:00:30;63284.94;;;3.49;71.95
6833;BME280;3454;42.654;23.378;2023-04-07T02:03:00;63259.44;;;3.25;73.34
6833;BME280;3454;42.654;23.378;2023-04-07T02:05:28;63240.94;;;3.08;75.49
6833;BME280;3454;42.654;23.378;2023-04-07T02:07:58;63259.19;;;3.22;73.76
6833;BME280;3454;42.654;23.378;2023-04-07T02:10:27;63260.50;;;3.26;71.08
6833;BME280;3454;42.654;23.378;2023-04-07T02:12:54;63271.59;;;3.38;73.26
6833;BME280;3454;42.654;23.378;2023-04-07T02:15:22;63281.69;;;3.46;71.66
6833;BME280;3454;42.654;23.378;2023-04-07T02:17:51;63284.16;;;3.46;71.40
6833;BME280;3454;42.654;23.378;2023-04-07T02:20:19;63297.75;;;3.58;71.58
6833;BME280;3454;42.654;23.378;2023-04-07T02:22:45;63307.75;;;3.70;71.18
6833;BME280;3454;42.654;23.378;2023-04-07T02:25:20;63319.16;;;3.80;70.93
6833;BME280;3454;42.654;23.378;2023-04-07T02:27:46;63323.28;;;3.82;70.63
6833;BME280;3454;42.654;23.378;2023-04-07T02:30:11;63326.78;;;3.87;70.66
6833;BME280;3454;42.654;23.378;2023-04-07T02:32:37;63332.84;;;3.88;70.14
6833;BME280;3454;42.654;23.378;2023-04-07T02:35:03;63305.59;;;3.68;72.66
6833;BME280;3454;42.654;23.378;2023-04-07T02:37:31;63311.56;;;3.73;71.87
6833;BME280;3454;42.654;23.378;2023-04-07T02:39:56;63287.66;;;3.51;73.06
6833;BME280;3454;42.654;23.378;2023-04-07T02:42:21;63283.53;;;3.50;73.74
6833;BME280;3454;42.654;23.378;2023-04-07T02:44:47;63306.38;;;3.71;71.94
6833;BME280;3454;42.654;23.378;2023-04-07T02:47:13;63311.03;;;3.73;72.02
6833;BME280;3454;42.654;23.378;2023-04-07T02:49:38;63326.00;;;3.84;71.86
6833;BME280;3454;42.654;23.378;2023-04-07T02:52:03;63328.72;;;3.87;72.14
6833;BME280;3454;42.654;23.378;2023-04-07T02:54:29;63346.91;;;4.06;71.14
6833;BME280;3454;42.654;23.378;2023-04-07T02:56:54;63339.59;;;3.97;70.67
6833;BME280;3454;42.654;23.378;2023-04-07T02:59:21;63342.56;;;4.02;70.53
6833;BME280;3454;42.654;23.378;2023-04-07T03:01:46;63345.91;;;4.00;70.55
6833;BME280;3454;42.654;23.378;2023-04-07T03:04:12;63329.50;;;3.90;72.03
6833;BME280;3454;42.654;23.378;2023-04-07T03:06:37;63356.69;;;4.15;70.38
6833;BME280;3454;42.654;23.378;2023-04-07T03:09:03;63358.09;;;4.14;70.09
6833;BME280;3454;42.654;23.378;2023-04-07T03:11:28;63337.44;;;3.95;71.16
6833;BME280;3454;42.654;23.378;2023-04-07T03:13:54;63340.16;;;3.97;71.55
6833;BME280;3454;42.654;23.378;2023-04-07T03:16:19;63350.69;;;4.09;71.07
6833;BME280;3454;42.654;23.378;2023-04-07T03:18:45;63348.31;;;4.05;70.97
6833;BME280;3454;42.654;23.378;2023-04-07T03:21:10;63347.22;;;4.04;70.32
6833;BME280;3454;42.654;23.378;2023-04-07T03:23:36;63339.28;;;3.99;70.73
6833;BME280;3454;42.654;23.378;2023-04-07T03:26:01;63338.84;;;3.94;70.38
6833;BME280;3454;42.654;23.378;2023-04-07T03:28:27;63315.38;;;3.77;69.34
6833;BME280;3454;42.654;23.378;2023-04-07T03:30:52;63322.22;;;3.81;70.17
6833;BME280;3454;42.654;23.378;2023-04-07T03:33:18;63317.88;;;3.77;67.24
6833;BME280;3454;42.654;23.378;2023-04-07T03:35:43;63312.41;;;3.72;66.24
6833;BME280;3454;42.654;23.378;2023-04-07T03:38:09;63297.44;;;3.60;63.31
6833;BME280;3454;42.654;23.378;2023-04-07T03:40:35;63292.03;;;3.55;62.28
6833;BME280;3454;42.654;23.378;2023-04-07T03:43:01;63292.78;;;3.58;61.67
6833;BME280;3454;42.654;23.378;2023-04-07T03:45:27;63305.59;;;3.68;62.03
6833;BME280;3454;42.654;23.378;2023-04-07T03:47:52;63314.59;;;3.74;57.96
6833;BME280;3454;42.654;23.378;2023-04-07T03:50:18;63300.47;;;3.61;56.84
6833;BME280;3454;42.654;23.378;2023-04-07T03:52:44;63291.25;;;3.52;55.76
6833;BME280;3454;42.654;23.378;2023-04-07T03:55:09;63297.22;;;3.58;54.93
6833;BME280;3454;42.654;23.378;2023-04-07T03:57:35;63292.22;;;3.58;54.78
6833;BME280;3454;42.654;23.378;2023-04-07T04:00:01;63296.69;;;3.57;55.14
6833;BME280;3454;42.654;23.378;2023-04-07T04:02:26;63297.22;;;3.58;55.22
6833;BME280;3454;42.654;23.378;2023-04-07T04:04:52;63307.22;;;3.69;56.13
6833;BME280;3454;42.654;23.378;2023-04-07T04:07:17;63298.53;;;3.61;55.05
6833;BME280;3454;42.654;23.378;2023-04-07T04:09:42;63349.06;;;4.08;56.43
6833;BME280;3454;42.654;23.378;2023-04-07T04:12:08;63361.91;;;4.17;59.32
6833;BME280;3454;42.654;23.378;2023-04-07T04:14:33;63358.84;;;4.17;63.31
6833;BME280;3454;42.654;23.378;2023-04-07T04:16:59;63358.84;;;4.17;66.43
6833;BME280;3454;42.654;23.378;2023-04-07T04:19:25;63381.25;;;4.33;68.30
6833;BME280;3454;42.654;23.378;2023-04-07T04:21:50;63367.88;;;4.23;70.07
6833;BME280;3454;42.654;23.378;2023-04-07T04:24:15;63347.22;;;4.04;71.55
6833;BME280;3454;42.654;23.378;2023-04-07T04:26:41;63342.31;;;3.99;71.83
6833;BME280;3454;42.654;23.378;2023-04-07T04:29:06;63367.88;;;4.23;72.16
6833;BME280;3454;42.654;23.378;2023-04-07T04:31:32;63378.75;;;4.33;70.61
6833;BME280;3454;42.654;23.378;2023-04-07T04:33:57;63368.97;;;4.24;69.62
6833;BME280;3454;42.654;23.378;2023-04-07T04:36:23;63390.16;;;4.44;70.38
6833;BME280;3454;42.654;23.378;2023-04-07T04:38:48;63395.59;;;4.49;70.10
6833;BME280;3454;42.654;23.378;2023-04-07T04:41:14;63388.00;;;4.42;69.38
6833;BME280;3454;42.654;23.378;2023-04-07T04:43:39;63377.34;;;4.34;69.00
6833;BME280;3454;42.654;23.378;2023-04-07T04:46:05;63385.50;;;4.42;69.68
6833;BME280;3454;42.654;23.378;2023-04-07T04:48:31;63401.03;;;4.54;69.14
6833;BME280;3454;42.654;23.378;2023-04-07T04:50:56;63395.28;;;4.51;68.47
6833;BME280;3454;42.654;23.378;2023-04-07T04:53:22;63366.78;;;4.22;69.30
6833;BME280;3454;42.654;23.378;2023-04-07T04:55:47;63341.03;;;3.96;71.85
6833;BME280;3454;42.654;23.378;2023-04-07T04:58:19;63347.75;;;4.04;70.32
6833;BME280;3454;42.654;23.378;2023-04-07T05:00:44;63339.28;;;3.99;69.23
6833;BME280;3454;42.654;23.378;2023-04-07T05:03:10;63320.59;;;3.79;70.63
6833;BME280;3454;42.654;23.378;2023-04-07T05:05:36;63322.66;;;3.86;71.28
6833;BME280;3454;42.654;23.378;2023-04-07T05:08:01;63354.28;;;4.10;72.03
6833;BME280;3454;42.654;23.378;2023-04-07T05:10:26;63358.09;;;4.14;69.91
6833;BME280;3454;42.654;23.378;2023-04-07T05:12:52;63390.41;;;4.46;68.26
6833;BME280;3454;42.654;23.378;2023-04-07T05:15:17;63380.91;;;4.35;68.21
6833;BME280;3454;42.654;23.378;2023-04-07T05:17:43;63352.88;;;4.11;69.80
6833;BME280;3454;42.654;23.378;2023-04-07T05:20:09;63346.13;;;4.03;70.28
6833;BME280;3454;42.654;23.378;2023-04-07T05:22:35;63357.53;;;4.13;70.06
6833;BME280;3454;42.654;23.378;2023-04-07T05:25:00;63380.38;;;4.35;69.88
6833;BME280;3454;42.654;23.378;2023-04-07T05:27:26;63376.03;;;4.31;70.30
6833;BME280;3454;42.654;23.378;2023-04-07T05:29:51;63394.19;;;4.50;69.22
6833;BME280;3454;42.654;23.378;2023-04-07T05:32:17;63403.44;;;4.58;68.86
6833;BME280;3454;42.654;23.378;2023-04-07T05:34:43;63398.00;;;4.53;69.15
6833;BME280;3454;42.654;23.378;2023-04-07T05:37:09;63407.25;;;4.62;69.33
6833;BME280;3454;42.654;23.378;2023-04-07T05:39:34;63431.19;;;4.84;68.72
6833;BME280;3454;42.654;23.378;2023-04-07T05:42:00;63415.72;;;4.67;69.33
6833;BME280;3454;42.654;23.378;2023-04-07T05:44:26;63442.38;;;4.92;68.80
6833;BME280;3454;42.654;23.378;2023-04-07T05:46:51;63502.47;;;5.50;81.70
6833;BME280;3454;42.654;23.378;2023-04-07T05:49:17;63483.19;;;5.30;68.51
6833;BME280;3454;42.654;23.378;2023-04-07T05:51:42;63481.25;;;5.30;67.58
6833;BME280;3454;42.654;23.378;2023-04-07T05:54:08;63495.41;;;5.43;67.30
6833;BME280;3454;42.654;23.378;2023-04-07T05:56:33;63680.91;;;7.17;67.02
6833;BME280;3454;42.654;23.378;2023-04-07T05:58:59;63589.63;;;6.30;63.55
6833;BME280;3454;42.654;23.378;2023-04-07T06:01:26;63564.34;;;6.05;63.81
6833;BME280;3454;42.654;23.378;2023-04-07T06:03:51;63552.38;;;5.93;63.21
6833;BME280;3454;42.654;23.378;2023-04-07T06:06:17;63540.06;;;5.84;63.26
6833;BME280;3454;42.654;23.378;2023-04-07T06:08:42;63540.63;;;5.85;62.38
6833;BME280;3454;42.654;23.378;2023-04-07T06:11:08;63528.28;;;5.76;63.34
6833;BME280;3454;42.654;23.378;2023-04-07T06:13:33;63517.41;;;5.66;63.64
6833;BME280;3454;42.654;23.378;2023-04-07T06:15:59;63516.09;;;5.62;64.54
6833;BME280;3454;42.654;23.378;2023-04-07T06:18:24;63537.97;;;5.78;64.88
6833;BME280;3454;42.654;23.378;2023-04-07T06:20:50;63516.63;;;5.63;63.40
6833;BME280;3454;42.654;23.378;2023-04-07T06:23:15;63508.25;;;5.53;61.83
6833;BME280;3454;42.654;23.378;2023-04-07T06:25:41;63517.50;;;5.61;62.46
6833;BME280;3454;42.654;23.378;2023-04-07T06:28:06;63544.19;;;5.86;61.88
6833;BME280;3454;42.654;23.378;2023-04-07T06:30:33;63531.66;;;5.74;62.82
6833;BME280;3454;42.654;23.378;2023-04-07T06:32:58;63526.97;;;5.72;61.51
6833;BME280;3454;42.654;23.378;2023-04-07T06:35:24;63537.63;;;5.80;62.42
6833;BME280;3454;42.654;23.378;2023-04-07T06:37:51;63553.91;;;6.00;62.00
6833;BME280;3454;42.654;23.378;2023-04-07T06:40:17;63569.81;;;6.10;60.86
6833;BME280;3454;42.654;23.378;2023-04-07T06:42:42;63576.22;;;6.20;60.52
6833;BME280;3454;42.654;23.378;2023-04-07T06:45:08;63573.63;;;6.13;60.96
6833;BME280;3454;42.654;23.378;2023-04-07T06:47:34;63553.91;;;6.00;62.58
6833;BME280;3454;42.654;23.378;2023-04-07T06:50:12;63573.38;;;6.11;61.58
6833;BME280;3454;42.654;23.378;2023-04-07T06:52:38;63597.28;;;6.37;60.56
6833;BME280;3454;42.654;23.378;2023-04-07T06:55:03;63590.41;;;6.33;60.54
6833;BME280;3454;42.654;23.378;2023-04-07T06:57:29;63580.91;;;6.22;60.31
6833;BME280;3454;42.654;23.378;2023-04-07T06:59:55;63569.69;;;6.14;61.64
6833;BME280;3454;42.654;23.378;2023-04-07T07:02:20;63599.78;;;6.37;60.61
6833;BME280;3454;42.654;23.378;2023-04-07T07:04:46;63607.94;;;6.45;61.01
6833;BME280;3454;42.654;23.378;2023-04-07T07:07:11;63633.56;;;6.68;61.13
6833;BME280;3454;42.654;23.378;2023-04-07T07:09:36;63643.06;;;6.79;59.95
6833;BME280;3454;42.654;23.378;2023-04-07T07:12:02;63652.66;;;6.86;56.71
6833;BME280;3454;42.654;23.378;2023-04-07T07:14:28;63641.66;;;6.81;58.29
6833;BME280;3454;42.654;23.378;2023-04-07T07:16:53;63662.91;;;7.00;56.35
6833;BME280;3454;42.654;23.378;2023-04-07T07:19:19;63650.69;;;6.87;56.24
6833;BME280;3454;42.654;23.378;2023-04-07T07:21:44;63647.97;;;6.84;57.52
6833;BME280;3454;42.654;23.378;2023-04-07T07:24:09;63652.09;;;6.86;56.60
6833;BME280;3454;42.654;23.378;2023-04-07T07:26:35;63639.25;;;6.76;56.00
6833;BME280;3454;42.654;23.378;2023-04-07T07:29:00;63647.09;;;6.86;55.52
6833;BME280;3454;42.654;23.378;2023-04-07T07:31:26;63652.88;;;6.89;55.56
6833;BME280;3454;42.654;23.378;2023-04-07T07:33:51;63667.38;;;7.00;55.98
6833;BME280;3454;42.654;23.378;2023-04-07T07:36:16;63700.31;;;7.32;56.90
6833;BME280;3454;42.654;23.378;2023-04-07T07:38:42;63702.50;;;7.34;54.20
6833;BME280;3454;42.654;23.378;2023-04-07T07:41:07;63728.13;;;7.58;52.17
6833;BME280;3454;42.654;23.378;2023-04-07T07:43:33;63680.44;;;7.12;47.25
6833;BME280;3454;42.654;23.378;2023-04-07T07:45:59;63664.31;;;6.99;46.06
6833;BME280;3454;42.654;23.378;2023-04-07T07:48:24;63632.47;;;6.67;47.01
6833;BME280;3454;42.654;23.378;2023-04-07T07:50:50;63619.28;;;6.60;46.66
6833;BME280;3454;42.654;23.378;2023-04-07T07:53:16;63617.44;;;6.56;46.83
6833;BME280;3454;42.654;23.378;2023-04-07T07:55:42;63650.69;;;6.87;46.18
6833;BME280;3454;42.654;23.378;2023-04-07T07:58:08;63659.09;;;6.97;45.63
6833;BME280;3454;42.654;23.378;2023-04-07T08:00:33;63658.31;;;6.94;45.66
6833;BME280;3454;42.654;23.378;2023-04-07T08:02:59;63637.59;;;6.74;45.28
6833;BME280;3454;42.654;23.378;2023-04-07T08:05:24;63620.38;;;6.61;45.58
6833;BME280;3454;42.654;23.378;2023-04-07T08:07:51;63633.03;;;6.68;45.74
6833;BME280;3454;42.654;23.378;2023-04-07T08:10:17;63661.91;;;6.95;46.17
6833;BME280;3454;42.654;23.378;2023-04-07T08:12:44;63687.22;;;7.20;44.43
6833;BME280;3454;42.654;23.378;2023-04-07T08:15:10;63663.97;;;7.01;44.89
6833;BME280;3454;42.654;23.378;2023-04-07T08:17:35;63647.41;;;6.84;44.86
6833;BME280;3454;42.654;23.378;2023-04-07T08:20:01;63637.59;;;6.74;45.05
6833;BME280;3454;42.654;23.378;2023-04-07T08:22:28;63647.72;;;6.82;45.32
6833;BME280;3454;42.654;23.378;2023-04-07T08:24:53;63662.69;;;6.98;45.20
6833;BME280;3454;42.654;23.378;2023-04-07T08:27:18;63646.00;;;6.85;43.84
6833;BME280;3454;42.654;23.378;2023-04-07T08:29:47;63658.53;;;6.96;44.65
6833;BME280;3454;42.654;23.378;2023-04-07T08:32:13;63686.66;;;7.20;45.38
6833;BME280;3454;42.654;23.378;2023-04-07T08:34:38;63670.84;;;7.05;44.40
6833;BME280;3454;42.654;23.378;2023-04-07T08:37:04;63672.50;;;7.07;44.46
6833;BME280;3454;42.654;23.378;2023-04-07T08:39:29;63677.94;;;7.12;44.68
6833;BME280;3454;42.654;23.378;2023-04-07T08:41:55;63694.84;;;7.27;44.74
6833;BME280;3454;42.654;23.378;2023-04-07T08:44:21;63706.53;;;7.40;44.20
6833;BME280;3454;42.654;23.378;2023-04-07T08:46:50;63721.03;;;7.51;43.85
6833;BME280;3454;42.654;23.378;2023-04-07T08:49:18;63739.38;;;7.66;44.62
6833;BME280;3454;42.654;23.378;2023-04-07T08:51:46;63753.78;;;7.82;43.49
6833;BME280;3454;42.654;23.378;2023-04-07T08:54:15;63742.53;;;7.74;43.94
6833;BME280;3454;42.654;23.378;2023-04-07T08:56:43;63701.84;;;7.38;42.86
6833;BME280;3454;42.654;23.378;2023-04-07T08:59:13;63736.53;;;7.68;42.82
6833;BME280;3454;42.654;23.378;2023-04-07T09:01:40;63695.16;;;7.25;42.96
6833;BME280;3454;42.654;23.378;2023-04-07T09:04:07;63741.78;;;7.71;42.99
6833;BME280;3454;42.654;23.378;2023-04-07T09:06:34;63769.06;;;7.96;42.29
6833;BME280;3454;42.654;23.378;2023-04-07T09:09:00;63750.72;;;7.81;42.20
6833;BME280;3454;42.654;23.378;2023-04-07T09:11:27;63732.50;;;7.62;42.24
6833;BME280;3454;42.654;23.378;2023-04-07T09:13:56;63716.13;;;7.47;43.14
6833;BME280;3454;42.654;23.378;2023-04-07T09:16:23;63727.03;;;7.57;42.09
6833;BME280;3454;42.654;23.378;2023-04-07T09:18:49;63754.31;;;7.82;42.98
6833;BME280;3454;42.654;23.378;2023-04-07T09:21:16;63790.91;;;8.16;42.58
6833;BME280;3454;42.654;23.378;2023-04-07T09:23:41;63771.78;;;7.98;41.42
6833;BME280;3454;42.654;23.378;2023-04-07T09:26:26;63831.31;;;8.53;42.20
6833;BME280;3454;42.654;23.378;2023-04-07T09:29:00;63862.44;;;8.82;42.02
6833;BME280;3454;42.654;23.378;2023-04-07T09:31:47;63805.34;;;8.31;41.41
6833;BME280;3454;42.654;23.378;2023-04-07T09:34:27;63801.84;;;8.26;41.31
6833;BME280;3454;42.654;23.378;2023-04-07T09:36:53;63787.06;;;8.12;41.95
6833;BME280;3454;42.654;23.378;2023-04-07T09:39:19;63809.47;;;8.33;42.31
6833;BME280;3454;42.654;23.378;2023-04-07T09:41:45;63799.63;;;8.24;42.58
6833;BME280;3454;42.654;23.378;2023-04-07T09:44:10;63783.25;;;8.09;42.22
6833;BME280;3454;42.654;23.378;2023-04-07T09:46:47;63780.75;;;8.09;42.85
6833;BME280;3454;42.654;23.378;2023-04-07T09:49:13;63808.41;;;8.32;42.39
6833;BME280;3454;42.654;23.378;2023-04-07T09:51:57;63846.84;;;8.70;43.54
6833;BME280;3454;42.654;23.378;2023-04-07T09:54:37;63857.75;;;8.80;41.29
6833;BME280;3454;42.654;23.378;2023-04-07T09:57:05;63789.47;;;8.17;42.73
6833;BME280;3454;42.654;23.378;2023-04-07T09:59:33;63761.19;;;7.86;43.09
6833;BME280;3454;42.654;23.378;2023-04-07T10:01:59;63769.91;;;7.94;43.92
6833;BME280;3454;42.654;23.378;2023-04-07T10:04:25;63758.69;;;7.86;44.32
6833;BME280;3454;42.654;23.378;2023-04-07T10:06:55;63791.44;;;8.16;43.73
6833;BME280;3454;42.654;23.378;2023-04-07T10:09:26;63804.22;;;8.30;42.86
6833;BME280;3454;42.654;23.378;2023-04-07T10:11:53;63826.41;;;8.48;42.36
6833;BME280;3454;42.654;23.378;2023-04-07T10:14:22;63871.19;;;8.90;43.14
6833;BME280;3454;42.654;23.378;2023-04-07T10:16:50;63879.38;;;8.97;42.30
6833;BME280;3454;42.654;23.378;2023-04-07T10:19:18;63850.44;;;8.71;43.20
6833;BME280;3454;42.654;23.378;2023-04-07T10:21:44;63838.41;;;8.60;42.12
6833;BME280;3454;42.654;23.378;2023-04-07T10:24:37;63816.56;;;8.39;41.91
6833;BME280;3454;42.654;23.378;2023-04-07T10:27:09;63790.69;;;8.13;42.86
6833;BME280;3454;42.654;23.378;2023-04-07T10:29:39;63772.66;;;7.97;43.46
6833;BME280;3454;42.654;23.378;2023-04-07T10:32:06;63776.38;;;8.05;43.11
6833;BME280;3454;42.654;23.378;2023-04-07T10:37:13;63810.03;;;8.33;43.14
6833;BME280;3454;42.654;23.378;2023-04-07T10:39:42;63776.69;;;8.03;42.81
6833;BME280;3454;42.654;23.378;2023-04-07T10:45:02;63791.44;;;8.16;43.52
6833;BME280;3454;42.654;23.378;2023-04-07T10:47:28;63796.56;;;8.23;43.57
6833;BME280;3454;42.654;23.378;2023-04-07T10:53:01;63783.81;;;8.09;45.29
6833;BME280;3454;42.654;23.378;2023-04-07T10:55:31;63816.03;;;8.39;46.49
6833;BME280;3454;42.654;23.378;2023-04-07T10:58:20;63837.00;;;8.61;47.15
6833;BME280;3454;42.654;23.378;2023-04-07T11:03:51;63818.75;;;8.41;46.00
6833;BME280;3454;42.654;23.378;2023-04-07T11:06:17;63823.88;;;8.48;47.25
6833;BME280;3454;42.654;23.378;2023-04-07T11:08:45;63821.38;;;8.48;46.07
6833;BME280;3454;42.654;23.378;2023-04-07T11:11:15;63817.34;;;8.42;46.47
6833;BME280;3454;42.654;23.378;2023-04-07T11:13:45;63854.03;;;8.72;47.41
6833;BME280;3454;42.654;23.378;2023-04-07T11:16:12;63830.75;;;8.53;45.79
6833;BME280;3454;42.654;23.378;2023-04-07T11:18:40;63795.81;;;8.20;45.42
6833;BME280;3454;42.654;23.378;2023-04-07T11:21:06;63759.47;;;7.89;45.96
6833;BME280;3454;42.654;23.378;2023-04-07T11:23:42;63766.88;;;7.94;46.07
6833;BME280;3454;42.654;23.378;2023-04-07T11:26:10;63783.03;;;8.06;47.91
6833;BME280;3454;42.654;23.378;2023-04-07T11:28:46;63781.28;;;8.09;47.56
6833;BME280;3454;42.654;23.378;2023-04-07T11:31:14;63758.16;;;7.86;47.92
6833;BME280;3454;42.654;23.378;2023-04-07T11:33:51;63829.69;;;8.52;49.06
6833;BME280;3454;42.654;23.378;2023-04-07T11:36:25;63851.75;;;8.74;48.55
6833;BME280;3454;42.654;23.378;2023-04-07T11:38:51;63823.88;;;8.48;46.86
6833;BME280;3454;42.654;23.378;2023-04-07T11:41:16;63800.41;;;8.27;46.60
6833;BME280;3454;42.654;23.378;2023-04-07T11:43:42;63808.41;;;8.32;47.06
6833;BME280;3454;42.654;23.378;2023-04-07T11:46:12;63788.72;;;8.14;46.19
6833;BME280;3454;42.654;23.378;2023-04-07T11:48:39;63813.50;;;8.39;46.64
6833;BME280;3454;42.654;23.378;2023-04-07T11:51:14;63794.16;;;8.19;47.32
6833;BME280;3454;42.654;23.378;2023-04-07T11:53:40;63788.91;;;8.16;46.73
6833;BME280;3454;42.654;23.378;2023-04-07T11:56:06;63822.03;;;8.44;48.34
6833;BME280;3454;42.654;23.378;2023-04-07T11:58:34;63832.63;;;8.57;47.61
6833;BME280;3454;42.654;23.378;2023-04-07T12:01:02;63828.38;;;8.48;47.66
6833;BME280;3454;42.654;23.378;2023-04-07T12:03:32;63829.13;;;8.51;47.65
6833;BME280;3454;42.654;23.378;2023-04-07T12:05:59;63831.53;;;8.56;47.33
6833;BME280;3454;42.654;23.378;2023-04-07T12:08:41;63884.84;;;9.02;48.35
6833;BME280;3454;42.654;23.378;2023-04-07T12:11:08;63865.41;;;8.87;46.86
6833;BME280;3454;42.654;23.378;2023-04-07T12:13:35;63857.53;;;8.77;47.83
6833;BME280;3454;42.654;23.378;2023-04-07T12:16:02;63892.72;;;9.12;48.43
6833;BME280;3454;42.654;23.378;2023-04-07T12:18:28;63909.13;;;9.27;47.69
6833;BME280;3454;42.654;23.378;2023-04-07T12:20:53;63913.81;;;9.29;47.39
6833;BME280;3454;42.654;23.378;2023-04-07T12:23:19;63914.03;;;9.31;46.10
6833;BME280;3454;42.654;23.378;2023-04-07T12:25:45;63949.66;;;9.60;47.13
6833;BME280;3454;42.654;23.378;2023-04-07T12:28:11;63986.53;;;9.96;46.58
6833;BME280;3454;42.654;23.378;2023-04-07T12:30:36;63963.00;;;9.74;46.12
6833;BME280;3454;42.654;23.378;2023-04-07T12:33:01;63933.50;;;9.47;46.40
6833;BME280;3454;42.654;23.378;2023-04-07T12:35:28;63913.28;;;9.28;45.94
6833;BME280;3454;42.654;23.378;2023-04-07T12:37:54;63900.91;;;9.19;47.06
6833;BME280;3454;42.654;23.378;2023-04-07T12:40:21;63918.72;;;9.33;46.30
6833;BME280;3454;42.654;23.378;2023-04-07T12:42:46;63880.16;;;9.00;46.59
6833;BME280;3454;42.654;23.378;2023-04-07T12:45:12;63966.31;;;9.77;46.60
6833;BME280;3454;42.654;23.378;2023-04-07T12:47:37;63955.56;;;9.70;46.26
6833;BME280;3454;42.654;23.378;2023-04-07T12:50:03;63947.16;;;9.60;46.56
6833;BME280;3454;42.654;23.378;2023-04-07T12:52:28;63979.97;;;9.90;46.13
6833;BME280;3454;42.654;23.378;2023-04-07T12:54:54;63966.19;;;9.82;45.19
6833;BME280;3454;42.654;23.378;2023-04-07T12:57:19;63959.41;;;9.73;47.87
6833;BME280;3454;42.654;23.378;2023-04-07T12:59:44;63979.44;;;9.89;46.93
6833;BME280;3454;42.654;23.378;2023-04-07T13:02:10;63987.09;;;9.96;46.09
6833;BME280;3454;42.654;23.378;2023-04-07T13:04:38;64023.44;;;10.32;45.88
6833;BME280;3454;42.654;23.378;2023-04-07T13:07:07;63990.91;;;10.00;45.91
6833;BME280;3454;42.654;23.378;2023-04-07T13:09:33;63976.16;;;9.86;46.67
6833;BME280;3454;42.654;23.378;2023-04-07T13:11:59;63984.56;;;9.96;47.41
6833;BME280;3454;42.654;23.378;2023-04-07T13:14:25;63986.84;;;9.94;46.93
6833;BME280;3454;42.654;23.378;2023-04-07T13:16:50;63986.53;;;9.96;46.33
6833;BME280;3454;42.654;23.378;2023-04-07T13:19:16;63963.56;;;9.75;45.93
6833;BME280;3454;42.654;23.378;2023-04-07T13:21:42;63936.03;;;9.47;47.07
6833;BME280;3454;42.654;23.378;2023-04-07T13:24:07;63918.19;;;9.33;46.54
6833;BME280;3454;42.654;23.378;2023-04-07T13:26:33;63910.53;;;9.26;47.83
6833;BME280;3454;42.654;23.378;2023-04-07T13:28:58;63917.09;;;9.32;47.20
6833;BME280;3454;42.654;23.378;2023-04-07T13:31:24;63845.19;;;8.68;47.19
6833;BME280;3454;42.654;23.378;2023-04-07T13:33:49;63852.63;;;8.73;48.00
6833;BME280;3454;42.654;23.378;2023-04-07T13:36:15;63832.41;;;8.54;48.35
6833;BME280;3454;42.654;23.378;2023-04-07T13:38:40;63814.41;;;8.37;48.42
6833;BME280;3454;42.654;23.378;2023-04-07T13:41:06;63811.88;;;8.37;49.10